sensor_id;sensor_type;location;lat;lon;timestamp;P1;durP1;ratioP1;P2;durP2;ratioP2
23123;SDS011;11731;48.592;8.858;2022-12-18T00:00:46;9.10;;;5.80;;
23123;SDS011;11731;48.592;8.858;2022-12-18T00:03:13;13.00;;;6.27;;
23123;SDS011;11731;48.592;8.858;2022-12-18T00:05:47;10.47;;;6.30;;
23123;SDS011;11731;48.592;8.858;2022-12-18T00:08:14;11.07;;;6.97;;
23123;SDS011;11731;48.592;8.858;2022-12-18T00:10:41;14.93;;;7.13;;
23123;SDS011;11731;48.592;8.858;2022-12-18T00:13:09;11.33;;;6.43;;
23123;SDS011;11731;48.592;8.858;2022-12-18T00:15:37;9.17;;;5.90;;
23123;SDS011;11731;48.592;8.858;2022-12-18T00:18:05;13.80;;;7.27;;
23123;SDS011;11731;48.592;8.858;2022-12-18T00:20:35;6.30;;;4.43;;
23123;SDS011;11731;48.592;8.858;2022-12-18T00:23:04;12.17;;;6.03;;
23123;SDS011;11731;48.592;8.858;2022-12-18T00:25:32;9.50;;;5.03;;
23123;SDS011;11731;48.592;8.858;2022-12-18T00:28:00;7.67;;;5.03;;
23123;SDS011;11731;48.592;8.858;2022-12-18T00:30:27;12.57;;;7.43;;
23123;SDS011;11731;48.592;8.858;2022-12-18T00:32:54;13.37;;;7.63;;
23123;SDS011;11731;48.592;8.858;2022-12-18T00:35:21;11.17;;;6.47;;
23123;SDS011;11731;48.592;8.858;2022-12-18T00:37:48;16.73;;;8.20;;
23123;SDS011;11731;48.592;8.858;2022-12-18T00:40:16;12.63;;;8.00;;
23123;SDS011;11731;48.592;8.858;2022-12-18T00:42:43;11.27;;;5.40;;
23123;SDS011;11731;48.592;8.858;2022-12-18T00:45:21;15.50;;;6.63;;
23123;SDS011;11731;48.592;8.858;2022-12-18T00:47:48;14.17;;;7.83;;
23123;SDS011;11731;48.592;8.858;2022-12-18T00:50:15;13.40;;;8.07;;
23123;SDS011;11731;48.592;8.858;2022-12-18T00:52:42;10.70;;;7.03;;
23123;SDS011;11731;48.592;8.858;2022-12-18T00:55:09;15.73;;;9.20;;
23123;SDS011;11731;48.592;8.858;2022-12-18T00:57:38;12.73;;;7.40;;
23123;SDS011;11731;48.592;8.858;2022-12-18T01:00:07;14.60;;;7.97;;
23123;SDS011;11731;48.592;8.858;2022-12-18T01:02:36;13.97;;;7.27;;
23123;SDS011;11731;48.592;8.858;2022-12-18T01:05:03;14.13;;;7.97;;
23123;SDS011;11731;48.592;8.858;2022-12-18T01:07:30;11.83;;;8.23;;
23123;SDS011;11731;48.592;8.858;2022-12-18T01:09:57;13.20;;;6.93;;
23123;SDS011;11731;48.592;8.858;2022-12-18T01:12:24;13.20;;;7.93;;
23123;SDS011;11731;48.592;8.858;2022-12-18T01:14:52;14.63;;;7.13;;
23123;SDS011;11731;48.592;8.858;2022-12-18T01:17:19;9.93;;;6.47;;
23123;SDS011;11731;48.592;8.858;2022-12-18T01:19:47;13.10;;;7.90;;
23123;SDS011;11731;48.592;8.858;2022-12-18T01:22:14;9.63;;;6.90;;
23123;SDS011;11731;48.592;8.858;2022-12-18T01:24:41;12.30;;;6.37;;
23123;SDS011;11731;48.592;8.858;2022-12-18T01:27:08;16.73;;;6.50;;
23123;SDS011;11731;48.592;8.858;2022-12-18T01:29:35;11.30;;;7.33;;
23123;SDS011;11731;48.592;8.858;2022-12-18T01:32:04;13.10;;;7.17;;
23123;SDS011;11731;48.592;8.858;2022-12-18T01:34:30;6.43;;;5.00;;
23123;SDS011;11731;48.592;8.858;2022-12-18T01:36:57;14.37;;;8.57;;
23123;SDS011;11731;48.592;8.858;2022-12-18T01:39:24;10.33;;;5.60;;
23123;SDS011;11731;48.592;8.858;2022-12-18T01:41:51;8.50;;;6.50;;
23123;SDS011;11731;48.592;8.858;2022-12-18T01:47:34;10.70;;;6.70;;
23123;SDS011;11731;48.592;8.858;2022-12-18T01:50:05;11.50;;;5.47;;
23123;SDS011;11731;48.592;8.858;2022-12-18T01:52:36;12.07;;;6.27;;
23123;SDS011;11731;48.592;8.858;2022-12-18T01:55:05;8.07;;;6.03;;
23123;SDS011;11731;48.592;8.858;2022-12-18T01:57:33;13.67;;;7.30;;
23123;SDS011;11731;48.592;8.858;2022-12-18T02:00:01;12.53;;;6.50;;
23123;SDS011;11731;48.592;8.858;2022-12-18T02:02:31;12.33;;;7.03;;
23123;SDS011;11731;48.592;8.858;2022-12-18T02:05:00;15.80;;;7.40;;
23123;SDS011;11731;48.592;8.858;2022-12-18T02:07:30;13.53;;;7.63;;
23123;SDS011;11731;48.592;8.858;2022-12-18T02:10:03;11.87;;;6.80;;
23123;SDS011;11731;48.592;8.858;2022-12-18T02:12:39;17.60;;;8.27;;
23123;SDS011;11731;48.592;8.858;2022-12-18T02:15:11;12.17;;;5.73;;
23123;SDS011;11731;48.592;8.858;2022-12-18T02:17:43;14.63;;;8.07;;
23123;SDS011;11731;48.592;8.858;2022-12-18T02:20:18;13.10;;;9.07;;
23123;SDS011;11731;48.592;8.858;2022-12-18T02:22:51;12.53;;;6.60;;
23123;SDS011;11731;48.592;8.858;2022-12-18T02:25:35;12.10;;;7.63;;
23123;SDS011;11731;48.592;8.858;2022-12-18T02:28:13;10.53;;;6.07;;
23123;SDS011;11731;48.592;8.858;2022-12-18T02:30:43;7.27;;;4.93;;
23123;SDS011;11731;48.592;8.858;2022-12-18T02:33:13;17.23;;;9.53;;
23123;SDS011;11731;48.592;8.858;2022-12-18T02:35:40;8.83;;;4.27;;
23123;SDS011;11731;48.592;8.858;2022-12-18T02:38:09;17.80;;;8.77;;
23123;SDS011;11731;48.592;8.858;2022-12-18T02:40:38;13.90;;;7.87;;
23123;SDS011;11731;48.592;8.858;2022-12-18T02:43:09;20.83;;;9.10;;
23123;SDS011;11731;48.592;8.858;2022-12-18T02:45:47;12.97;;;8.00;;
23123;SDS011;11731;48.592;8.858;2022-12-18T02:48:16;15.57;;;8.77;;
23123;SDS011;11731;48.592;8.858;2022-12-18T02:50:45;18.43;;;8.73;;
23123;SDS011;11731;48.592;8.858;2022-12-18T02:53:20;14.13;;;8.03;;
23123;SDS011;11731;48.592;8.858;2022-12-18T02:56:03;11.47;;;6.90;;
23123;SDS011;11731;48.592;8.858;2022-12-18T02:58:38;9.90;;;5.40;;
23123;SDS011;11731;48.592;8.858;2022-12-18T03:01:13;13.87;;;7.80;;
23123;SDS011;11731;48.592;8.858;2022-12-18T03:03:46;12.73;;;7.60;;
23123;SDS011;11731;48.592;8.858;2022-12-18T03:06:20;13.40;;;7.03;;
23123;SDS011;11731;48.592;8.858;2022-12-18T03:08:52;14.70;;;7.50;;
23123;SDS011;11731;48.592;8.858;2022-12-18T03:11:24;16.67;;;9.07;;
23123;SDS011;11731;48.592;8.858;2022-12-18T03:14:08;19.00;;;9.73;;
23123;SDS011;11731;48.592;8.858;2022-12-18T03:16:38;21.83;;;10.17;;
23123;SDS011;11731;48.592;8.858;2022-12-18T03:19:08;13.70;;;7.67;;
23123;SDS011;11731;48.592;8.858;2022-12-18T03:21:40;17.73;;;8.17;;
23123;SDS011;11731;48.592;8.858;2022-12-18T03:24:11;19.87;;;9.20;;
23123;SDS011;11731;48.592;8.858;2022-12-18T03:26:39;18.83;;;9.80;;
23123;SDS011;11731;48.592;8.858;2022-12-18T03:29:12;17.97;;;9.07;;
23123;SDS011;11731;48.592;8.858;2022-12-18T03:31:45;15.67;;;8.30;;
23123;SDS011;11731;48.592;8.858;2022-12-18T03:34:17;15.73;;;9.47;;
23123;SDS011;11731;48.592;8.858;2022-12-18T03:36:49;16.77;;;9.37;;
23123;SDS011;11731;48.592;8.858;2022-12-18T03:39:16;15.93;;;9.00;;
23123;SDS011;11731;48.592;8.858;2022-12-18T03:41:43;14.57;;;8.87;;
23123;SDS011;11731;48.592;8.858;2022-12-18T03:44:14;18.23;;;9.37;;
23123;SDS011;11731;48.592;8.858;2022-12-18T03:46:49;15.93;;;8.73;;
23123;SDS011;11731;48.592;8.858;2022-12-18T03:49:25;18.03;;;8.57;;
23123;SDS011;11731;48.592;8.858;2022-12-18T03:51:59;21.90;;;9.60;;
23123;SDS011;11731;48.592;8.858;2022-12-18T03:54:29;23.83;;;9.33;;
23123;SDS011;11731;48.592;8.858;2022-12-18T03:56:59;19.53;;;9.40;;
23123;SDS011;11731;48.592;8.858;2022-12-18T03:59:30;25.33;;;10.60;;
23123;SDS011;11731;48.592;8.858;2022-12-18T04:02:00;17.97;;;9.80;;
23123;SDS011;11731;48.592;8.858;2022-12-18T04:04:29;22.80;;;9.20;;
23123;SDS011;11731;48.592;8.858;2022-12-18T04:06:57;28.23;;;10.20;;
23123;SDS011;11731;48.592;8.858;2022-12-18T04:09:25;20.33;;;10.80;;
23123;SDS011;11731;48.592;8.858;2022-12-18T04:11:53;26.47;;;10.93;;
23123;SDS011;11731;48.592;8.858;2022-12-18T04:14:20;22.97;;;10.13;;
23123;SDS011;11731;48.592;8.858;2022-12-18T04:16:47;20.17;;;9.87;;
23123;SDS011;11731;48.592;8.858;2022-12-18T04:19:15;23.53;;;10.27;;
23123;SDS011;11731;48.592;8.858;2022-12-18T04:21:42;23.67;;;10.57;;
23123;SDS011;11731;48.592;8.858;2022-12-18T04:24:09;23.03;;;11.80;;
23123;SDS011;11731;48.592;8.858;2022-12-18T04:26:36;20.40;;;9.70;;
23123;SDS011;11731;48.592;8.858;2022-12-18T04:29:03;30.90;;;11.33;;
23123;SDS011;11731;48.592;8.858;2022-12-18T04:31:30;21.27;;;10.83;;
23123;SDS011;11731;48.592;8.858;2022-12-18T04:33:57;28.37;;;10.90;;
23123;SDS011;11731;48.592;8.858;2022-12-18T04:38:53;22.43;;;10.03;;
23123;SDS011;11731;48.592;8.858;2022-12-18T04:41:20;32.03;;;12.20;;
23123;SDS011;11731;48.592;8.858;2022-12-18T04:43:47;30.00;;;11.83;;
23123;SDS011;11731;48.592;8.858;2022-12-18T04:46:14;27.43;;;11.07;;
23123;SDS011;11731;48.592;8.858;2022-12-18T04:48:41;26.77;;;10.70;;
23123;SDS011;11731;48.592;8.858;2022-12-18T04:51:08;29.80;;;11.17;;
23123;SDS011;11731;48.592;8.858;2022-12-18T04:53:35;24.13;;;10.17;;
23123;SDS011;11731;48.592;8.858;2022-12-18T04:56:04;24.47;;;11.23;;
23123;SDS011;11731;48.592;8.858;2022-12-18T04:58:32;24.63;;;10.37;;
23123;SDS011;11731;48.592;8.858;2022-12-18T05:00:59;25.30;;;10.73;;
23123;SDS011;11731;48.592;8.858;2022-12-18T05:03:25;21.17;;;10.03;;
23123;SDS011;11731;48.592;8.858;2022-12-18T05:05:52;28.43;;;12.37;;
23123;SDS011;11731;48.592;8.858;2022-12-18T05:08:19;23.47;;;11.33;;
23123;SDS011;11731;48.592;8.858;2022-12-18T05:10:46;26.70;;;11.50;;
23123;SDS011;11731;48.592;8.858;2022-12-18T05:13:14;21.87;;;10.73;;
23123;SDS011;11731;48.592;8.858;2022-12-18T05:15:41;24.43;;;11.50;;
23123;SDS011;11731;48.592;8.858;2022-12-18T05:18:08;21.87;;;9.83;;
23123;SDS011;11731;48.592;8.858;2022-12-18T05:20:35;33.43;;;11.93;;
23123;SDS011;11731;48.592;8.858;2022-12-18T05:23:02;25.43;;;11.03;;
23123;SDS011;11731;48.592;8.858;2022-12-18T05:25:28;20.60;;;10.20;;
23123;SDS011;11731;48.592;8.858;2022-12-18T05:27:55;23.03;;;11.90;;
23123;SDS011;11731;48.592;8.858;2022-12-18T05:30:23;30.70;;;10.83;;
23123;SDS011;11731;48.592;8.858;2022-12-18T05:32:50;27.13;;;10.97;;
23123;SDS011;11731;48.592;8.858;2022-12-18T05:35:17;24.20;;;11.17;;
23123;SDS011;11731;48.592;8.858;2022-12-18T05:37:44;39.93;;;13.03;;
23123;SDS011;11731;48.592;8.858;2022-12-18T05:40:11;20.53;;;9.43;;
23123;SDS011;11731;48.592;8.858;2022-12-18T05:42:38;24.10;;;10.53;;
23123;SDS011;11731;48.592;8.858;2022-12-18T05:45:05;21.63;;;10.70;;
23123;SDS011;11731;48.592;8.858;2022-12-18T05:47:34;23.63;;;11.17;;
23123;SDS011;11731;48.592;8.858;2022-12-18T05:50:01;19.53;;;10.70;;
23123;SDS011;11731;48.592;8.858;2022-12-18T05:52:28;28.50;;;11.73;;
23123;SDS011;11731;48.592;8.858;2022-12-18T05:54:56;30.10;;;12.50;;
23123;SDS011;11731;48.592;8.858;2022-12-18T05:57:23;28.43;;;11.70;;
23123;SDS011;11731;48.592;8.858;2022-12-18T05:59:51;23.63;;;10.77;;
23123;SDS011;11731;48.592;8.858;2022-12-18T06:02:18;22.30;;;10.63;;
23123;SDS011;11731;48.592;8.858;2022-12-18T06:04:47;21.60;;;10.83;;
23123;SDS011;11731;48.592;8.858;2022-12-18T06:07:14;27.77;;;10.67;;
23123;SDS011;11731;48.592;8.858;2022-12-18T06:09:41;28.27;;;10.70;;
23123;SDS011;11731;48.592;8.858;2022-12-18T06:12:07;23.67;;;10.03;;
23123;SDS011;11731;48.592;8.858;2022-12-18T06:14:35;24.57;;;10.37;;
23123;SDS011;11731;48.592;8.858;2022-12-18T06:17:02;24.63;;;10.37;;
23123;SDS011;11731;48.592;8.858;2022-12-18T06:19:29;35.43;;;10.23;;
23123;SDS011;11731;48.592;8.858;2022-12-18T06:21:57;28.33;;;10.67;;
23123;SDS011;11731;48.592;8.858;2022-12-18T06:24:24;23.63;;;12.13;;
23123;SDS011;11731;48.592;8.858;2022-12-18T06:26:51;27.60;;;11.07;;
23123;SDS011;11731;48.592;8.858;2022-12-18T06:29:18;22.33;;;10.87;;
23123;SDS011;11731;48.592;8.858;2022-12-18T06:31:45;31.07;;;11.90;;
23123;SDS011;11731;48.592;8.858;2022-12-18T06:34:12;23.53;;;10.03;;
23123;SDS011;11731;48.592;8.858;2022-12-18T06:36:38;25.10;;;11.07;;
23123;SDS011;11731;48.592;8.858;2022-12-18T06:39:07;27.63;;;10.00;;
23123;SDS011;11731;48.592;8.858;2022-12-18T06:41:33;26.27;;;10.20;;
23123;SDS011;11731;48.592;8.858;2022-12-18T06:44:00;38.20;;;11.10;;
23123;SDS011;11731;48.592;8.858;2022-12-18T06:46:28;17.90;;;9.33;;
23123;SDS011;11731;48.592;8.858;2022-12-18T06:48:54;23.67;;;10.50;;
23123;SDS011;11731;48.592;8.858;2022-12-18T06:51:22;22.57;;;10.20;;
23123;SDS011;11731;48.592;8.858;2022-12-18T06:53:51;20.67;;;9.77;;
23123;SDS011;11731;48.592;8.858;2022-12-18T06:56:19;20.27;;;9.83;;
23123;SDS011;11731;48.592;8.858;2022-12-18T06:58:46;23.30;;;11.20;;
23123;SDS011;11731;48.592;8.858;2022-12-18T07:01:13;18.67;;;10.07;;
23123;SDS011;11731;48.592;8.858;2022-12-18T07:03:40;30.70;;;10.20;;
23123;SDS011;11731;48.592;8.858;2022-12-18T07:06:12;32.97;;;11.33;;
23123;SDS011;11731;48.592;8.858;2022-12-18T07:08:39;16.87;;;9.03;;
23123;SDS011;11731;48.592;8.858;2022-12-18T07:11:06;19.47;;;9.03;;
23123;SDS011;11731;48.592;8.858;2022-12-18T07:13:35;21.17;;;9.40;;
23123;SDS011;11731;48.592;8.858;2022-12-18T07:16:06;20.90;;;9.00;;
23123;SDS011;11731;48.592;8.858;2022-12-18T07:18:33;17.83;;;9.87;;
23123;SDS011;11731;48.592;8.858;2022-12-18T07:21:02;19.07;;;9.03;;
23123;SDS011;11731;48.592;8.858;2022-12-18T07:23:31;14.60;;;7.80;;
23123;SDS011;11731;48.592;8.858;2022-12-18T07:26:00;22.10;;;9.80;;
23123;SDS011;11731;48.592;8.858;2022-12-18T07:28:28;19.40;;;8.77;;
23123;SDS011;11731;48.592;8.858;2022-12-18T07:30:56;11.40;;;7.20;;
23123;SDS011;11731;48.592;8.858;2022-12-18T07:33:23;14.90;;;8.53;;
23123;SDS011;11731;48.592;8.858;2022-12-18T07:35:50;12.27;;;6.93;;
23123;SDS011;11731;48.592;8.858;2022-12-18T07:38:17;22.70;;;9.97;;
23123;SDS011;11731;48.592;8.858;2022-12-18T07:40:45;13.13;;;5.17;;
23123;SDS011;11731;48.592;8.858;2022-12-18T07:43:12;19.00;;;7.83;;
23123;SDS011;11731;48.592;8.858;2022-12-18T07:45:39;18.70;;;7.70;;
23123;SDS011;11731;48.592;8.858;2022-12-18T07:48:07;18.97;;;8.33;;
23123;SDS011;11731;48.592;8.858;2022-12-18T07:50:34;21.30;;;9.33;;
23123;SDS011;11731;48.592;8.858;2022-12-18T07:53:01;38.33;;;8.50;;
23123;SDS011;11731;48.592;8.858;2022-12-18T07:55:30;16.67;;;8.77;;
23123;SDS011;11731;48.592;8.858;2022-12-18T07:57:59;25.23;;;9.17;;
23123;SDS011;11731;48.592;8.858;2022-12-18T08:00:27;19.33;;;8.33;;
23123;SDS011;11731;48.592;8.858;2022-12-18T08:02:54;14.47;;;7.13;;
23123;SDS011;11731;48.592;8.858;2022-12-18T08:05:22;21.30;;;10.27;;
23123;SDS011;11731;48.592;8.858;2022-12-18T08:07:49;23.33;;;9.93;;
23123;SDS011;11731;48.592;8.858;2022-12-18T08:10:16;22.13;;;10.80;;
23123;SDS011;11731;48.592;8.858;2022-12-18T08:12:43;24.67;;;11.00;;
23123;SDS011;11731;48.592;8.858;2022-12-18T08:15:10;20.67;;;9.93;;
23123;SDS011;11731;48.592;8.858;2022-12-18T08:17:37;19.83;;;10.77;;
23123;SDS011;11731;48.592;8.858;2022-12-18T08:20:04;23.03;;;9.53;;
23123;SDS011;11731;48.592;8.858;2022-12-18T08:22:34;26.20;;;10.47;;
23123;SDS011;11731;48.592;8.858;2022-12-18T08:25:01;30.97;;;11.40;;
23123;SDS011;11731;48.592;8.858;2022-12-18T08:27:28;22.33;;;9.37;;
23123;SDS011;11731;48.592;8.858;2022-12-18T08:29:55;24.70;;;10.50;;
23123;SDS011;11731;48.592;8.858;2022-12-18T08:32:22;18.40;;;8.53;;
23123;SDS011;11731;48.592;8.858;2022-12-18T08:34:49;23.23;;;10.50;;
23123;SDS011;11731;48.592;8.858;2022-12-18T08:37:16;22.47;;;8.87;;
23123;SDS011;11731;48.592;8.858;2022-12-18T08:39:44;17.63;;;9.43;;
23123;SDS011;11731;48.592;8.858;2022-12-18T08:42:11;20.67;;;8.53;;
23123;SDS011;11731;48.592;8.858;2022-12-18T08:44:55;19.23;;;9.90;;
23123;SDS011;11731;48.592;8.858;2022-12-18T08:47:22;18.23;;;9.07;;
23123;SDS011;11731;48.592;8.858;2022-12-18T08:49:50;16.90;;;7.93;;
23123;SDS011;11731;48.592;8.858;2022-12-18T08:52:17;17.50;;;10.83;;
23123;SDS011;11731;48.592;8.858;2022-12-18T08:54:45;16.27;;;9.10;;
23123;SDS011;11731;48.592;8.858;2022-12-18T08:57:12;16.70;;;8.10;;
23123;SDS011;11731;48.592;8.858;2022-12-18T08:59:39;18.07;;;8.70;;
23123;SDS011;11731;48.592;8.858;2022-12-18T09:02:07;26.07;;;9.40;;
23123;SDS011;11731;48.592;8.858;2022-12-18T09:04:35;20.27;;;9.17;;
23123;SDS011;11731;48.592;8.858;2022-12-18T09:07:02;19.80;;;9.23;;
23123;SDS011;11731;48.592;8.858;2022-12-18T09:09:29;15.23;;;7.50;;
23123;SDS011;11731;48.592;8.858;2022-12-18T09:11:57;17.07;;;9.53;;
23123;SDS011;11731;48.592;8.858;2022-12-18T09:14:24;22.83;;;10.97;;
23123;SDS011;11731;48.592;8.858;2022-12-18T09:16:51;16.27;;;9.63;;
23123;SDS011;11731;48.592;8.858;2022-12-18T09:19:17;15.90;;;8.77;;
23123;SDS011;11731;48.592;8.858;2022-12-18T09:21:44;20.97;;;10.37;;
23123;SDS011;11731;48.592;8.858;2022-12-18T09:24:11;19.30;;;10.10;;
23123;SDS011;11731;48.592;8.858;2022-12-18T09:26:39;23.27;;;10.30;;
23123;SDS011;11731;48.592;8.858;2022-12-18T09:29:08;11.97;;;6.53;;
23123;SDS011;11731;48.592;8.858;2022-12-18T09:31:35;20.27;;;9.57;;
23123;SDS011;11731;48.592;8.858;2022-12-18T09:34:07;13.87;;;7.80;;
23123;SDS011;11731;48.592;8.858;2022-12-18T09:36:34;15.07;;;8.47;;
23123;SDS011;11731;48.592;8.858;2022-12-18T09:39:01;15.17;;;8.93;;
23123;SDS011;11731;48.592;8.858;2022-12-18T09:41:33;14.93;;;8.83;;
23123;SDS011;11731;48.592;8.858;2022-12-18T09:44:15;16.40;;;9.60;;
23123;SDS011;11731;48.592;8.858;2022-12-18T09:46:47;14.83;;;8.70;;
23123;SDS011;11731;48.592;8.858;2022-12-18T09:49:18;16.83;;;9.33;;
23123;SDS011;11731;48.592;8.858;2022-12-18T09:51:49;21.30;;;9.73;;
23123;SDS011;11731;48.592;8.858;2022-12-18T09:54:20;15.90;;;9.67;;
23123;SDS011;11731;48.592;8.858;2022-12-18T09:56:52;20.30;;;9.90;;
23123;SDS011;11731;48.592;8.858;2022-12-18T09:59:25;18.40;;;10.83;;
23123;SDS011;11731;48.592;8.858;2022-12-18T10:02:00;23.13;;;11.13;;
23123;SDS011;11731;48.592;8.858;2022-12-18T10:04:40;20.73;;;10.90;;
23123;SDS011;11731;48.592;8.858;2022-12-18T10:07:09;18.47;;;9.97;;
23123;SDS011;11731;48.592;8.858;2022-12-18T10:09:43;19.50;;;10.03;;
23123;SDS011;11731;48.592;8.858;2022-12-18T10:12:17;22.03;;;10.70;;
23123;SDS011;11731;48.592;8.858;2022-12-18T10:14:53;20.00;;;10.47;;
23123;SDS011;11731;48.592;8.858;2022-12-18T10:17:26;22.20;;;11.27;;
23123;SDS011;11731;48.592;8.858;2022-12-18T10:20:01;20.63;;;10.97;;
23123;SDS011;11731;48.592;8.858;2022-12-18T10:22:39;20.13;;;10.60;;
23123;SDS011;11731;48.592;8.858;2022-12-18T10:25:15;17.70;;;10.63;;
23123;SDS011;11731;48.592;8.858;2022-12-18T10:27:47;22.57;;;10.33;;
23123;SDS011;11731;48.592;8.858;2022-12-18T10:30:22;22.73;;;12.17;;
23123;SDS011;11731;48.592;8.858;2022-12-18T10:32:50;18.63;;;11.83;;
23123;SDS011;11731;48.592;8.858;2022-12-18T10:35:19;22.83;;;12.13;;
23123;SDS011;11731;48.592;8.858;2022-12-18T10:38:00;21.67;;;12.30;;
23123;SDS011;11731;48.592;8.858;2022-12-18T10:40:35;21.40;;;11.03;;
23123;SDS011;11731;48.592;8.858;2022-12-18T10:43:29;21.93;;;11.83;;
23123;SDS011;11731;48.592;8.858;2022-12-18T10:46:00;24.70;;;12.60;;
23123;SDS011;11731;48.592;8.858;2022-12-18T10:48:55;24.43;;;12.80;;
23123;SDS011;11731;48.592;8.858;2022-12-18T10:51:25;28.80;;;13.57;;
23123;SDS011;11731;48.592;8.858;2022-12-18T10:53:55;26.07;;;14.23;;
23123;SDS011;11731;48.592;8.858;2022-12-18T10:56:26;31.50;;;15.07;;
23123;SDS011;11731;48.592;8.858;2022-12-18T10:58:55;26.17;;;14.03;;
23123;SDS011;11731;48.592;8.858;2022-12-18T11:01:25;26.83;;;13.80;;
23123;SDS011;11731;48.592;8.858;2022-12-18T11:04:00;25.67;;;13.10;;
23123;SDS011;11731;48.592;8.858;2022-12-18T11:06:29;30.87;;;14.03;;
23123;SDS011;11731;48.592;8.858;2022-12-18T11:08:59;26.33;;;13.93;;
23123;SDS011;11731;48.592;8.858;2022-12-18T11:11:27;24.60;;;13.47;;
23123;SDS011;11731;48.592;8.858;2022-12-18T11:13:58;23.93;;;14.40;;
23123;SDS011;11731;48.592;8.858;2022-12-18T11:16:30;28.40;;;13.47;;
23123;SDS011;11731;48.592;8.858;2022-12-18T11:19:17;27.07;;;14.27;;
23123;SDS011;11731;48.592;8.858;2022-12-18T11:39:49;25.33;;;12.77;;
23123;SDS011;11731;48.592;8.858;2022-12-18T11:42:23;22.67;;;11.97;;
23123;SDS011;11731;48.592;8.858;2022-12-18T11:51:45;30.07;;;14.03;;
23123;SDS011;11731;48.592;8.858;2022-12-18T11:54:17;30.70;;;13.73;;
23123;SDS011;11731;48.592;8.858;2022-12-18T11:56:45;27.17;;;14.80;;
23123;SDS011;11731;48.592;8.858;2022-12-18T11:59:15;29.17;;;14.73;;
23123;SDS011;11731;48.592;8.858;2022-12-18T12:01:51;27.17;;;13.20;;
23123;SDS011;11731;48.592;8.858;2022-12-18T12:07:19;24.93;;;13.60;;
23123;SDS011;11731;48.592;8.858;2022-12-18T12:10:00;22.53;;;13.10;;
23123;SDS011;11731;48.592;8.858;2022-12-18T12:12:36;26.07;;;13.00;;
23123;SDS011;11731;48.592;8.858;2022-12-18T12:15:21;25.50;;;13.27;;
23123;SDS011;11731;48.592;8.858;2022-12-18T12:17:56;24.43;;;13.07;;
23123;SDS011;11731;48.592;8.858;2022-12-18T12:20:32;21.43;;;11.93;;
23123;SDS011;11731;48.592;8.858;2022-12-18T12:23:13;27.97;;;13.70;;
23123;SDS011;11731;48.592;8.858;2022-12-18T12:25:48;27.60;;;13.70;;
23123;SDS011;11731;48.592;8.858;2022-12-18T12:28:34;24.97;;;13.40;;
23123;SDS011;11731;48.592;8.858;2022-12-18T12:31:27;24.53;;;13.07;;
23123;SDS011;11731;48.592;8.858;2022-12-18T12:34:15;29.90;;;13.80;;
23123;SDS011;11731;48.592;8.858;2022-12-18T12:36:48;20.20;;;12.37;;
23123;SDS011;11731;48.592;8.858;2022-12-18T12:39:26;24.90;;;12.77;;
23123;SDS011;11731;48.592;8.858;2022-12-18T12:41:58;24.00;;;12.27;;
23123;SDS011;11731;48.592;8.858;2022-12-18T12:44:43;21.80;;;12.80;;
23123;SDS011;11731;48.592;8.858;2022-12-18T12:47:14;27.70;;;13.07;;
23123;SDS011;11731;48.592;8.858;2022-12-18T12:49:43;23.53;;;12.30;;
23123;SDS011;11731;48.592;8.858;2022-12-18T12:52:16;25.40;;;13.27;;
23123;SDS011;11731;48.592;8.858;2022-12-18T12:55:04;23.27;;;13.07;;
23123;SDS011;11731;48.592;8.858;2022-12-18T12:57:51;21.77;;;12.90;;
23123;SDS011;11731;48.592;8.858;2022-12-18T13:01:01;23.83;;;13.67;;
23123;SDS011;11731;48.592;8.858;2022-12-18T13:03:54;23.77;;;13.00;;
23123;SDS011;11731;48.592;8.858;2022-12-18T13:06:38;25.30;;;14.10;;
23123;SDS011;11731;48.592;8.858;2022-12-18T13:09:22;27.80;;;12.80;;
23123;SDS011;11731;48.592;8.858;2022-12-18T13:12:32;21.80;;;12.97;;
23123;SDS011;11731;48.592;8.858;2022-12-18T13:15:20;22.73;;;12.63;;
23123;SDS011;11731;48.592;8.858;2022-12-18T13:17:48;22.77;;;13.20;;
23123;SDS011;11731;48.592;8.858;2022-12-18T13:20:32;23.73;;;14.53;;
23123;SDS011;11731;48.592;8.858;2022-12-18T13:23:00;21.20;;;12.27;;
23123;SDS011;11731;48.592;8.858;2022-12-18T13:25:28;26.37;;;13.13;;
23123;SDS011;11731;48.592;8.858;2022-12-18T13:28:09;23.93;;;13.40;;
23123;SDS011;11731;48.592;8.858;2022-12-18T13:30:43;19.90;;;11.70;;
23123;SDS011;11731;48.592;8.858;2022-12-18T13:36:09;20.83;;;11.30;;
23123;SDS011;11731;48.592;8.858;2022-12-18T13:38:40;19.63;;;10.90;;
23123;SDS011;11731;48.592;8.858;2022-12-18T13:41:22;18.57;;;10.73;;
23123;SDS011;11731;48.592;8.858;2022-12-18T13:53:53;18.03;;;10.30;;
23123;SDS011;11731;48.592;8.858;2022-12-18T13:56:42;23.87;;;11.77;;
23123;SDS011;11731;48.592;8.858;2022-12-18T13:59:12;22.87;;;11.37;;
23123;SDS011;11731;48.592;8.858;2022-12-18T14:01:45;23.43;;;12.57;;
23123;SDS011;11731;48.592;8.858;2022-12-18T14:04:25;23.47;;;12.60;;
23123;SDS011;11731;48.592;8.858;2022-12-18T14:06:54;25.63;;;12.40;;
23123;SDS011;11731;48.592;8.858;2022-12-18T14:09:26;21.27;;;12.30;;
23123;SDS011;11731;48.592;8.858;2022-12-18T14:11:54;20.90;;;12.07;;
23123;SDS011;11731;48.592;8.858;2022-12-18T14:14:44;24.27;;;12.07;;
23123;SDS011;11731;48.592;8.858;2022-12-18T14:17:13;22.13;;;12.27;;
23123;SDS011;11731;48.592;8.858;2022-12-18T14:19:42;21.43;;;12.60;;
23123;SDS011;11731;48.592;8.858;2022-12-18T14:22:13;21.73;;;12.57;;
23123;SDS011;11731;48.592;8.858;2022-12-18T14:24:43;22.87;;;12.00;;
23123;SDS011;11731;48.592;8.858;2022-12-18T14:27:21;23.80;;;12.17;;
23123;SDS011;11731;48.592;8.858;2022-12-18T14:29:50;24.03;;;13.07;;
23123;SDS011;11731;48.592;8.858;2022-12-18T14:32:18;22.17;;;12.37;;
23123;SDS011;11731;48.592;8.858;2022-12-18T14:38:23;26.93;;;15.07;;
23123;SDS011;11731;48.592;8.858;2022-12-18T14:44:21;25.03;;;13.73;;
23123;SDS011;11731;48.592;8.858;2022-12-18T14:47:21;28.87;;;14.50;;
23123;SDS011;11731;48.592;8.858;2022-12-18T14:49:40;29.33;;;15.37;;
23123;SDS011;11731;48.592;8.858;2022-12-18T14:52:57;26.77;;;13.87;;
23123;SDS011;11731;48.592;8.858;2022-12-18T14:55:24;26.70;;;13.90;;
23123;SDS011;11731;48.592;8.858;2022-12-18T14:57:53;27.57;;;14.03;;
23123;SDS011;11731;48.592;8.858;2022-12-18T15:00:22;29.80;;;13.87;;
23123;SDS011;11731;48.592;8.858;2022-12-18T15:02:57;25.50;;;13.87;;
23123;SDS011;11731;48.592;8.858;2022-12-18T15:05:27;29.43;;;15.20;;
23123;SDS011;11731;48.592;8.858;2022-12-18T15:08:00;24.83;;;14.37;;
23123;SDS011;11731;48.592;8.858;2022-12-18T15:10:27;24.57;;;14.93;;
23123;SDS011;11731;48.592;8.858;2022-12-18T15:13:08;24.33;;;13.47;;
23123;SDS011;11731;48.592;8.858;2022-12-18T15:15:46;23.30;;;14.50;;
23123;SDS011;11731;48.592;8.858;2022-12-18T15:18:15;30.33;;;16.87;;
23123;SDS011;11731;48.592;8.858;2022-12-18T15:20:45;32.87;;;18.27;;
23123;SDS011;11731;48.592;8.858;2022-12-18T15:23:17;34.10;;;18.57;;
23123;SDS011;11731;48.592;8.858;2022-12-18T15:25:47;35.17;;;18.03;;
23123;SDS011;11731;48.592;8.858;2022-12-18T15:28:23;35.20;;;19.07;;
23123;SDS011;11731;48.592;8.858;2022-12-18T15:30:59;34.23;;;18.73;;
23123;SDS011;11731;48.592;8.858;2022-12-18T15:33:29;33.70;;;17.37;;
23123;SDS011;11731;48.592;8.858;2022-12-18T15:35:58;35.90;;;18.17;;
23123;SDS011;11731;48.592;8.858;2022-12-18T15:38:26;33.83;;;17.60;;
23123;SDS011;11731;48.592;8.858;2022-12-18T15:40:55;36.57;;;18.23;;
23123;SDS011;11731;48.592;8.858;2022-12-18T15:43:24;31.23;;;17.20;;